Time;durP1;ratioP1;P1;durP2;ratioP2;P2;SDS_P1;SDS_P2;PMS_P1;PMS_P2;Temp;Humidity;BMP_temperature;BMP_pressure;BME280_temperature;BME280_humidity;BME280_pressure;Samples;Min_cycle;Max_cycle;Signal;HPM_P1;HPM_P2
2022/03/28 00:02:07;0.00;0.00;0.62;0.00;0.00;0.62;2.00;1.30;;;28.00;22.60;;;;;;2231562;62;20371;-55
2022/03/28 00:04:53;0.00;0.00;0.62;0.00;0.00;0.62;2.40;1.40;;;28.00;22.50;;;;;;2231437;62;20834;-54
2022/03/28 00:07:38;0.00;0.00;0.62;0.00;0.00;0.62;2.60;1.97;;;28.00;22.50;;;;;;2231204;62;20375;-53
2022/03/28 00:10:23;0.00;0.00;0.62;0.00;0.00;0.62;2.93;2.50;;;27.90;22.30;;;;;;2232400;62;20456;-53
2022/03/28 00:13:08;0.00;0.00;0.62;0.00;0.00;0.62;3.67;2.83;;;27.90;22.30;;;;;;2231403;62;20362;-59
2022/03/28 00:16:01;0.00;0.00;0.62;0.00;0.00;0.62;3.53;2.57;;;27.90;22.20;;;;;;2232229;62;20424;-51
2022/03/28 00:18:46;0.00;0.00;0.62;0.00;0.00;0.62;3.03;2.40;;;27.90;22.20;;;;;;2231977;62;20767;-54
2022/03/28 00:21:32;0.00;0.00;0.62;0.00;0.00;0.62;4.07;3.53;;;27.80;22.00;;;;;;2231254;62;20379;-56
2022/03/28 00:24:16;0.00;0.00;0.62;0.00;0.00;0.62;3.63;3.23;;;27.80;22.00;;;;;;2232442;62;20387;-57
2022/03/28 00:27:01;0.00;0.00;0.62;0.00;0.00;0.62;5.73;3.60;;;27.80;22.00;;;;;;2231783;62;20375;-52
2022/03/28 00:29:46;0.00;0.00;0.62;0.00;0.00;0.62;5.00;3.77;;;27.80;21.90;;;;;;2231621;62;20387;-51
2022/03/28 00:32:31;0.00;0.00;0.62;0.00;0.00;0.62;5.57;3.67;;;27.80;21.90;;;;;;2229148;62;20418;-56
2022/03/28 00:35:17;0.00;0.00;0.62;0.00;0.00;0.62;4.30;3.73;;;27.80;21.90;;;;;;2231332;62;20779;-53
2022/03/28 00:38:03;0.00;0.00;0.62;0.00;0.00;0.62;4.40;4.00;;;27.70;21.80;;;;;;2231874;62;20407;-54
2022/03/28 00:40:48;0.00;0.00;0.62;0.00;0.00;0.62;5.10;4.13;;;27.70;21.80;;;;;;2232031;62;20404;-59
2022/03/28 00:43:33;0.00;0.00;0.62;0.00;0.00;0.62;4.60;4.10;;;27.70;21.80;;;;;;2231238;62;20374;-55
2022/03/28 00:46:18;0.00;0.00;0.62;0.00;0.00;0.62;5.47;4.40;;;27.70;21.80;;;;;;2232402;62;20363;-53
2022/03/28 00:49:03;0.00;0.00;0.62;0.00;0.00;0.62;5.87;4.60;;;27.60;21.70;;;;;;2231919;62;20490;-54
2022/03/28 00:51:47;0.00;0.00;0.62;0.00;0.00;0.62;7.10;4.87;;;27.60;21.70;;;;;;2231176;62;20403;-53
2022/03/28 00:54:33;0.00;0.00;0.62;0.00;0.00;0.62;4.80;4.30;;;27.60;21.70;;;;;;2232501;62;20375;-54
2022/03/28 00:57:18;0.00;0.00;0.62;0.00;0.00;0.62;5.83;5.07;;;27.50;21.60;;;;;;2231270;62;20380;-56
2022/03/28 01:00:09;0.00;0.00;0.62;0.00;0.00;0.62;5.30;4.53;;;27.50;21.60;;;;;;2231880;62;20718;-55
2022/03/28 01:02:54;0.00;0.00;0.62;0.00;0.00;0.62;5.53;5.00;;;27.50;21.60;;;;;;2232267;62;20975;-57
2022/03/28 01:05:38;0.00;0.00;0.62;0.00;0.00;0.62;5.47;4.47;;;27.40;21.50;;;;;;2231273;62;20371;-53
2022/03/28 01:08:23;0.00;0.00;0.62;0.00;0.00;0.62;5.90;5.33;;;27.40;21.50;;;;;;2231911;62;20390;-54
2022/03/28 01:11:10;0.00;0.00;0.62;0.00;0.00;0.62;5.80;4.97;;;27.40;21.60;;;;;;2231653;62;20459;-55
2022/03/28 01:13:57;0.00;0.00;0.62;0.00;0.00;0.62;5.93;4.60;;;27.40;21.50;;;;;;2231361;62;20940;-53
2022/03/28 01:19:45;0.00;0.00;0.62;0.00;0.00;0.62;6.63;4.93;;;27.30;21.50;;;;;;2230910;62;20419;-54
2022/03/28 01:22:31;0.00;0.00;0.62;0.00;0.00;0.62;6.70;5.33;;;27.30;21.50;;;;;;2231916;62;20417;-52
2022/03/28 01:25:20;0.00;0.00;0.62;0.00;0.00;0.62;7.80;5.80;;;27.20;21.40;;;;;;2231566;62;20875;-59
2022/03/28 01:28:05;0.00;0.00;0.62;0.00;0.00;0.62;5.80;5.20;;;27.20;21.40;;;;;;2231055;62;20507;-56
2022/03/28 01:30:51;0.00;0.00;0.62;0.00;0.00;0.62;7.60;5.50;;;27.20;21.40;;;;;;2232124;62;20814;-51
2022/03/28 01:33:36;0.00;0.00;0.62;0.00;0.00;0.62;6.40;5.10;;;27.10;21.30;;;;;;2229812;62;20375;-54
2022/03/28 01:36:24;0.00;0.00;0.62;0.00;0.00;0.62;6.13;4.93;;;27.10;21.30;;;;;;2229772;62;20774;-53
2022/03/28 01:39:10;0.00;0.00;0.62;0.00;0.00;0.62;5.70;5.07;;;27.10;21.30;;;;;;2229695;62;20475;-54
2022/03/28 01:41:55;0.00;0.00;0.62;0.00;0.00;0.62;6.73;5.50;;;27.00;21.30;;;;;;2229069;62;20881;-54
2022/03/28 01:44:39;0.00;0.00;0.62;0.00;0.00;0.62;5.57;5.07;;;27.00;21.30;;;;;;2230030;62;20423;-53
2022/03/28 01:47:26;0.00;0.00;0.62;0.00;0.00;0.62;5.87;4.97;;;27.00;21.30;;;;;;2230000;62;20379;-57
2022/03/28 01:50:11;0.00;0.00;0.62;0.00;0.00;0.62;6.60;5.40;;;27.00;21.30;;;;;;2229385;62;20371;-54
2022/03/28 01:52:55;0.00;0.00;0.62;0.00;0.00;0.62;5.60;5.07;;;26.90;21.30;;;;;;2230385;62;20516;-54
2022/03/28 01:55:41;0.00;0.00;0.62;0.00;0.00;0.62;5.63;4.70;;;26.90;21.30;;;;;;2230941;62;20419;-55
2022/03/28 01:58:26;0.00;0.00;0.62;0.00;0.00;0.62;5.97;5.37;;;26.80;21.20;;;;;;2231019;62;20442;-54
2022/03/28 02:01:10;0.00;0.00;0.62;0.00;0.00;0.62;6.80;5.90;;;26.80;21.20;;;;;;2231878;62;20402;-53
2022/03/28 02:03:55;0.00;0.00;0.62;0.00;0.00;0.62;6.93;5.23;;;26.80;21.20;;;;;;2231204;62;20367;-54
2022/03/28 02:06:40;0.00;0.00;0.62;0.00;0.00;0.62;6.23;5.30;;;26.80;21.20;;;;;;2231505;62;20428;-52
2022/03/28 02:09:24;0.00;0.00;0.62;0.00;0.00;0.62;7.77;5.90;;;26.70;21.20;;;;;;2230939;62;20819;-57
2022/03/28 02:12:11;0.00;0.00;0.62;0.00;0.00;0.62;6.37;5.77;;;26.70;21.20;;;;;;2229438;62;20430;-55
2022/03/28 02:14:56;0.00;0.00;0.62;0.00;0.00;0.62;9.40;6.40;;;26.70;21.20;;;;;;2228317;62;20416;-55
2022/03/28 02:17:41;0.00;0.00;0.62;0.00;0.00;0.62;6.97;6.20;;;26.60;21.20;;;;;;2223063;62;20429;-56
2022/03/28 02:20:25;0.00;0.00;0.62;0.00;0.00;0.62;6.07;5.30;;;26.60;21.20;;;;;;2225063;62;21002;-58
2022/03/28 02:23:10;0.00;0.00;0.62;0.00;0.00;0.62;6.10;5.33;;;26.60;21.20;;;;;;2226354;62;20921;-55
2022/03/28 02:25:55;0.00;0.00;0.62;0.00;0.00;0.62;7.30;5.37;;;26.50;21.20;;;;;;2225599;62;20452;-54
2022/03/28 02:28:45;0.00;0.00;0.62;0.00;0.00;0.62;7.60;5.93;;;26.50;21.20;;;;;;2225833;62;20453;-56
2022/03/28 02:31:29;0.00;0.00;0.62;0.00;0.00;0.62;6.70;5.50;;;26.50;21.20;;;;;;2226328;62;20423;-55
2022/03/28 02:34:14;0.00;0.00;0.62;0.00;0.00;0.62;6.80;5.73;;;26.40;21.20;;;;;;2225578;62;20408;-56
2022/03/28 02:36:59;0.00;0.00;0.62;0.00;0.00;0.62;7.30;5.43;;;26.40;21.20;;;;;;2227199;62;20372;-50
2022/03/28 02:39:43;0.00;0.00;0.62;0.00;0.00;0.62;8.40;6.07;;;26.30;21.20;;;;;;2227534;62;20423;-53
2022/03/28 02:42:29;0.00;0.00;0.62;0.00;0.00;0.62;7.20;6.40;;;26.30;21.20;;;;;;2226187;62;20357;-54
2022/03/28 02:45:15;0.00;0.00;0.62;0.00;0.00;0.62;7.20;6.07;;;26.30;21.20;;;;;;2226197;62;20472;-54
2022/03/28 02:48:00;0.00;0.00;0.62;0.00;0.00;0.62;7.70;5.80;;;26.30;21.20;;;;;;2225859;62;20376;-50
2022/03/28 02:50:45;0.00;0.00;0.62;0.00;0.00;0.62;6.20;5.00;;;26.20;21.10;;;;;;2227293;62;20380;-59
2022/03/28 02:53:30;0.00;0.00;0.62;0.00;0.00;0.62;5.50;4.87;;;26.20;21.10;;;;;;2228006;62;20890;-53
2022/03/28 02:56:14;0.00;0.00;0.62;0.00;0.00;0.62;7.37;4.73;;;26.20;21.20;;;;;;2227180;62;20401;-52
2022/03/28 02:58:59;0.00;0.00;0.62;0.00;0.00;0.62;6.80;5.27;;;26.20;21.20;;;;;;2227630;62;20392;-51
2022/03/28 03:01:46;0.00;0.00;0.62;0.00;0.00;0.62;7.10;4.87;;;26.10;21.20;;;;;;2227498;62;20839;-51
2022/03/28 03:04:31;0.00;0.00;0.62;0.00;0.00;0.62;5.80;4.80;;;26.20;21.30;;;;;;2226971;62;20375;-54
2022/03/28 03:07:16;0.00;0.00;0.62;0.00;0.00;0.62;6.07;4.90;;;26.10;21.30;;;;;;2227885;62;20379;-51
2022/03/28 03:10:00;0.00;0.00;0.62;0.00;0.00;0.62;7.53;5.20;;;26.00;21.30;;;;;;2227540;62;20411;-53
2022/03/28 03:12:45;0.00;0.00;0.62;0.00;0.00;0.62;5.57;5.07;;;26.10;21.30;;;;;;2227409;62;20494;-56
2022/03/28 03:15:29;0.00;0.00;0.62;0.00;0.00;0.62;6.60;4.87;;;26.00;21.30;;;;;;2227778;62;20376;-55
2022/03/28 03:18:15;0.00;0.00;0.62;0.00;0.00;0.62;7.97;5.53;;;26.00;21.30;;;;;;2227014;62;20941;-54
2022/03/28 03:21:00;0.00;0.00;0.62;0.00;0.00;0.62;8.03;5.33;;;26.00;21.30;;;;;;2227674;62;20369;-53
2022/03/28 03:23:44;0.00;0.00;0.62;0.00;0.00;0.62;6.07;4.40;;;25.90;21.30;;;;;;2227570;62;20367;-53
2022/03/28 03:26:29;0.00;0.00;0.62;0.00;0.00;0.62;6.03;5.33;;;25.90;21.20;;;;;;2226792;62;20464;-53
2022/03/28 03:29:13;0.00;0.00;0.62;0.00;0.00;0.62;6.73;5.60;;;25.90;21.20;;;;;;2224864;62;20472;-57
2022/03/28 03:31:58;0.00;0.00;0.62;0.00;0.00;0.62;6.57;5.43;;;25.90;21.20;;;;;;2227598;62;20433;-54
2022/03/28 03:34:44;0.00;0.00;0.62;0.00;0.00;0.62;9.53;5.40;;;25.80;21.30;;;;;;2227327;62;20471;-56
2022/03/28 03:37:29;0.00;0.00;0.62;0.00;0.00;0.62;6.20;5.00;;;25.80;21.20;;;;;;2227860;62;20393;-55
2022/03/28 03:40:13;0.00;0.00;0.62;0.00;0.00;0.62;7.37;4.97;;;25.80;21.20;;;;;;2227078;62;20436;-52
2022/03/28 03:42:58;0.00;0.00;0.62;0.00;0.00;0.62;6.43;4.90;;;25.80;21.50;;;;;;2227997;62;20407;-52
2022/03/28 03:45:42;0.00;0.00;0.62;0.00;0.00;0.62;5.80;4.87;;;25.70;21.20;;;;;;2228634;62;20376;-52
2022/03/28 03:48:27;0.00;0.00;0.62;0.00;0.00;0.62;5.80;4.63;;;25.70;21.20;;;;;;2227305;62;20513;-51
2022/03/28 03:51:13;0.00;0.00;0.62;0.00;0.00;0.62;6.40;5.20;;;25.70;21.20;;;;;;2228643;62;20431;-56
2022/03/28 03:53:58;0.00;0.00;0.62;0.00;0.00;0.62;6.90;4.57;;;25.70;21.20;;;;;;2228097;62;20458;-54
2022/03/28 03:56:43;0.00;0.00;0.62;0.00;0.00;0.62;4.93;4.30;;;25.70;21.20;;;;;;2227469;62;20376;-51
2022/03/28 03:59:28;0.00;0.00;0.62;0.00;0.00;0.62;8.27;5.07;;;25.60;21.20;;;;;;2228672;62;20819;-52
2022/03/28 04:02:12;0.00;0.00;0.62;0.00;0.00;0.62;5.73;4.90;;;25.60;21.30;;;;;;2227426;62;20428;-55
2022/03/28 04:04:57;0.00;0.00;0.62;0.00;0.00;0.62;6.10;4.57;;;25.60;21.30;;;;;;2228089;62;20367;-53
2022/03/28 04:07:43;0.00;0.00;0.62;0.00;0.00;0.62;9.27;5.40;;;25.60;21.30;;;;;;2228478;62;20474;-56
2022/03/28 04:10:27;0.00;0.00;0.62;0.00;0.00;0.62;7.43;6.17;;;25.50;21.30;;;;;;2227630;62;20371;-56
2022/03/28 04:13:13;0.00;0.00;0.62;0.00;0.00;0.62;8.00;5.03;;;25.50;21.30;;;;;;2228720;62;20368;-52
2022/03/28 04:15:57;0.00;0.00;0.62;0.00;0.00;0.62;5.47;4.97;;;25.50;21.90;;;;;;2227708;62;20411;-50
2022/03/28 04:18:42;0.00;0.00;0.62;0.00;0.00;0.62;6.83;4.80;;;25.50;21.30;;;;;;2227764;62;20523;-54
2022/03/28 04:21:27;0.00;0.00;0.62;0.00;0.00;0.62;5.23;4.40;;;25.50;21.30;;;;;;2228397;62;20821;-52
2022/03/28 04:24:13;0.00;0.00;0.62;0.00;0.00;0.62;5.40;4.17;;;25.40;21.30;;;;;;2227563;62;20380;-53
2022/03/28 04:26:57;0.00;0.00;0.62;0.00;0.00;0.62;7.70;4.37;;;25.40;21.30;;;;;;2227860;62;20372;-50
2022/03/28 04:29:42;0.00;0.00;0.62;0.00;0.00;0.62;6.20;4.40;;;25.40;21.30;;;;;;2228516;62;20443;-52
2022/03/28 04:32:26;0.00;0.00;0.62;0.00;0.00;0.62;4.50;3.80;;;25.40;21.30;;;;;;2227427;62;20977;-53
2022/03/28 04:35:12;0.00;0.00;0.62;0.00;0.00;0.62;4.70;3.20;;;25.40;21.40;;;;;;2228613;62;20460;-56
2022/03/28 04:37:59;0.00;0.00;0.62;0.00;0.00;0.62;5.37;3.63;;;25.40;21.40;;;;;;2227830;62;20368;-53
2022/03/28 04:40:45;0.00;0.00;0.62;0.00;0.00;0.62;5.83;4.50;;;25.30;21.30;;;;;;2227364;62;20452;-52
2022/03/28 04:43:30;0.00;0.00;0.62;0.00;0.00;0.62;5.50;3.87;;;25.30;21.30;;;;;;2228381;62;20368;-51
2022/03/28 04:46:14;0.00;0.00;0.62;0.00;0.00;0.62;4.43;3.60;;;25.20;21.30;;;;;;2227979;62;20395;-53
2022/03/28 04:48:59;0.00;0.00;0.62;0.00;0.00;0.62;4.20;3.80;;;25.30;21.40;;;;;;2227926;62;20388;-52
2022/03/28 04:51:44;0.00;0.00;0.62;0.00;0.00;0.62;5.40;3.80;;;25.20;21.40;;;;;;2228263;62;20960;-53
2022/03/28 04:54:28;0.00;0.00;0.62;0.00;0.00;0.62;3.53;3.23;;;25.20;21.40;;;;;;2227146;62;20429;-53
2022/03/28 04:57:15;0.00;0.00;0.62;0.00;0.00;0.62;4.73;3.40;;;25.20;21.40;;;;;;2227967;62;20831;-55
2022/03/28 05:00:00;0.00;0.00;0.62;0.00;0.00;0.62;3.87;3.33;;;25.20;21.40;;;;;;2227625;62;20836;-54
2022/03/28 05:02:45;0.00;0.00;0.62;0.00;0.00;0.62;4.57;3.27;;;25.20;21.40;;;;;;2227561;62;20516;-55
2022/03/28 05:05:29;0.00;0.00;0.62;0.00;0.00;0.62;3.27;2.97;;;25.20;21.40;;;;;;2228216;62;20385;-54
2022/03/28 05:08:14;0.00;0.00;0.62;0.00;0.00;0.62;3.37;2.83;;;25.10;21.40;;;;;;2227610;62;20479;-53
2022/03/28 05:10:58;0.00;0.00;0.62;0.00;0.00;0.62;3.83;3.03;;;25.10;21.40;;;;;;2224722;62;21001;-56
2022/03/28 05:13:45;0.00;0.00;0.62;0.00;0.00;0.62;3.93;3.27;;;25.10;21.40;;;;;;2228407;62;20811;-56
2022/03/28 05:16:29;0.00;0.00;0.62;0.00;0.00;0.62;3.37;2.93;;;25.10;21.40;;;;;;2227088;62;20380;-57
2022/03/28 05:19:13;0.00;0.00;0.62;0.00;0.00;0.62;5.30;3.00;;;25.10;21.40;;;;;;2227935;62;20555;-56
2022/03/28 05:21:58;0.00;0.00;0.62;0.00;0.00;0.62;3.47;2.80;;;25.10;21.50;;;;;;2228088;62;20416;-53
2022/03/28 05:24:42;0.00;0.00;0.62;0.00;0.00;0.62;4.10;2.90;;;25.10;21.50;;;;;;2227351;62;20376;-57
2022/03/28 05:27:28;0.00;0.00;0.62;0.00;0.00;0.62;3.27;2.50;;;25.00;21.50;;;;;;2228084;62;20852;-56
2022/03/28 05:30:15;0.00;0.00;0.62;0.00;0.00;0.62;3.50;2.87;;;25.00;21.50;;;;;;2224855;62;20383;-58
2022/03/28 05:33:00;0.00;0.00;0.62;0.00;0.00;0.62;3.00;2.43;;;25.00;21.50;;;;;;2227430;62;20461;-56
2022/03/28 05:35:45;0.00;0.00;0.62;0.00;0.00;0.62;3.90;2.37;;;25.00;21.50;;;;;;2228254;62;20371;-53
2022/03/28 05:38:30;0.00;0.00;0.62;0.00;0.00;0.62;3.37;2.80;;;25.00;21.50;;;;;;2227296;62;20392;-57
2022/03/28 05:41:15;0.00;0.00;0.62;0.00;0.00;0.62;4.23;2.80;;;24.90;21.50;;;;;;2229038;62;20386;-57
2022/03/28 05:44:00;0.00;0.00;0.62;0.00;0.00;0.62;3.70;3.00;;;24.90;21.50;;;;;;2229301;62;20367;-53
2022/03/28 05:46:51;0.00;0.00;0.62;0.00;0.00;0.62;4.20;3.30;;;24.90;21.50;;;;;;2231369;62;20828;-52
2022/03/28 05:49:36;0.00;0.00;0.62;0.00;0.00;0.62;3.73;3.10;;;24.90;21.50;;;;;;2231992;62;21191;-52
2022/03/28 05:52:21;0.00;0.00;0.62;0.00;0.00;0.62;5.27;3.10;;;24.90;21.60;;;;;;2231928;62;20972;-55
2022/03/28 05:55:07;0.00;0.00;0.62;0.00;0.00;0.62;4.60;2.83;;;24.90;21.60;;;;;;2231125;62;20407;-54
2022/03/28 05:57:51;0.00;0.00;0.62;0.00;0.00;0.62;4.10;3.07;;;24.90;21.60;;;;;;2228097;62;20431;-56
2022/03/28 06:00:36;0.00;0.00;0.62;0.00;0.00;0.62;3.20;2.80;;;24.80;21.50;;;;;;2230783;62;20371;-59
2022/03/28 06:03:21;0.00;0.00;0.62;0.00;0.00;0.62;3.53;2.87;;;24.80;21.50;;;;;;2231698;62;20376;-58
2022/03/28 06:06:09;0.00;0.00;0.62;0.00;0.00;0.62;3.83;3.43;;;24.80;21.50;;;;;;2232041;62;20460;-55
2022/03/28 06:08:54;0.00;0.00;0.62;0.00;0.00;0.62;3.70;2.80;;;24.80;21.50;;;;;;2231156;62;20439;-55
2022/03/28 06:11:39;0.00;0.00;0.62;0.00;0.00;0.62;4.20;3.10;;;24.70;21.40;;;;;;2232184;62;20391;-56
2022/03/28 06:14:23;0.00;0.00;0.62;0.00;0.00;0.62;4.90;3.57;;;24.80;21.50;;;;;;2231744;62;20952;-57
2022/03/28 06:17:08;0.00;0.00;0.62;0.00;0.00;0.62;5.13;3.47;;;24.70;21.50;;;;;;2231306;62;20367;-56
2022/03/28 06:19:54;0.00;0.00;0.62;0.00;0.00;0.62;4.03;3.40;;;24.70;21.50;;;;;;2230194;62;20517;-56
2022/03/28 06:22:38;0.00;0.00;0.62;0.00;0.00;0.62;4.20;3.47;;;24.70;21.50;;;;;;2228851;62;20372;-55
2022/03/28 06:25:23;0.00;0.00;0.62;0.00;0.00;0.62;4.03;3.40;;;24.70;22.00;;;;;;2227536;62;20403;-54
2022/03/28 06:28:09;0.00;0.00;0.62;0.00;0.00;0.62;4.00;3.30;;;24.70;21.40;;;;;;2230754;62;20482;-55
2022/03/28 06:30:55;0.00;0.00;0.62;0.00;0.00;0.62;4.20;3.27;;;24.60;21.40;;;;;;2228900;62;20765;-55
2022/03/28 06:33:39;0.00;0.00;0.62;0.00;0.00;0.62;5.10;4.27;;;24.60;21.40;;;;;;2230026;62;20368;-52
2022/03/28 06:36:25;0.00;0.00;0.62;0.00;0.00;0.62;6.17;5.10;;;24.60;21.40;;;;;;2231034;62;20410;-62
2022/03/28 06:39:10;0.00;0.00;0.62;0.00;0.00;0.62;5.27;4.27;;;24.60;21.30;;;;;;2225595;62;20440;-56
2022/03/28 06:41:55;0.00;0.00;0.62;0.00;0.00;0.62;6.40;5.20;;;24.60;21.40;;;;;;2228283;62;20371;-54
2022/03/28 06:44:39;0.00;0.00;0.62;0.00;0.00;0.62;5.30;4.80;;;24.60;21.40;;;;;;2230272;62;20398;-55
2022/03/28 06:47:25;0.00;0.00;0.62;0.00;0.00;0.62;6.93;5.40;;;24.50;21.40;;;;;;2549736;46;20925;-55
2022/03/28 06:50:10;0.00;0.00;0.62;0.00;0.00;0.62;5.70;4.90;;;24.50;21.30;;;;;;2227837;62;20785;-51
2022/03/28 06:52:55;0.00;0.00;0.62;0.00;0.00;0.62;6.60;5.13;;;24.50;21.90;;;;;;2224097;62;20747;-51
2022/03/28 06:55:40;0.00;0.00;0.62;0.00;0.00;0.62;5.73;4.83;;;24.50;21.40;;;;;;2226007;62;20921;-56
2022/03/28 06:58:25;0.00;0.00;0.62;0.00;0.00;0.62;6.23;4.80;;;24.50;21.40;;;;;;2225934;62;20950;-57
2022/03/28 07:01:10;0.00;0.00;0.62;0.00;0.00;0.62;7.13;5.73;;;24.50;21.40;;;;;;2225580;62;20913;-55
2022/03/28 07:03:55;0.00;0.00;0.62;0.00;0.00;0.62;6.90;5.50;;;24.50;21.40;;;;;;2226809;62;20372;-57
2022/03/28 07:06:40;0.00;0.00;0.62;0.00;0.00;0.62;5.47;4.50;;;24.40;21.40;;;;;;2225869;62;20368;-55
2022/03/28 07:09:26;0.00;0.00;0.62;0.00;0.00;0.62;6.03;5.43;;;24.40;21.40;;;;;;2225938;62;20403;-55
2022/03/28 07:12:11;0.00;0.00;0.62;0.00;0.00;0.62;6.60;5.60;;;24.50;21.40;;;;;;2227055;62;20400;-55
2022/03/28 07:14:55;0.00;0.00;0.62;0.00;0.00;0.62;7.30;6.50;;;24.40;21.40;;;;;;2224186;62;20383;-55
2022/03/28 07:17:51;0.00;0.00;0.62;0.00;0.00;0.62;6.50;5.23;;;24.40;21.40;;;;;;2228102;62;20368;-53
2022/03/28 07:20:36;0.00;0.00;0.62;0.00;0.00;0.62;10.77;7.47;;;24.40;21.40;;;;;;2228176;62;20457;-56
2022/03/28 07:23:22;0.00;0.00;0.62;0.00;0.00;0.62;8.03;7.23;;;24.40;21.40;;;;;;2228016;62;20360;-53
2022/03/28 07:26:09;0.00;0.00;0.62;0.00;0.00;0.62;7.03;6.20;;;24.40;21.50;;;;;;2228724;62;20413;-58
2022/03/28 07:28:58;0.00;0.00;0.62;0.00;0.00;0.62;8.93;7.00;;;24.40;21.50;;;;;;2227916;62;20436;-57
2022/03/28 07:31:42;0.00;0.00;0.62;0.00;0.00;0.62;7.40;6.33;;;24.30;21.40;;;;;;2227649;62;20384;-53
2022/03/28 07:34:29;0.00;0.00;0.62;0.00;0.00;0.62;8.10;6.23;;;24.30;21.50;;;;;;2228649;62;20376;-58
2022/03/28 07:37:15;0.00;0.00;0.62;0.00;0.00;0.62;7.03;5.30;;;24.30;21.60;;;;;;2227935;62;20882;-56
2022/03/28 07:40:00;0.00;0.00;0.62;0.00;0.00;0.62;7.67;5.97;;;24.30;21.70;;;;;;2227769;62;20403;-58
2022/03/28 07:42:46;0.00;0.00;0.62;0.00;0.00;0.62;7.47;5.57;;;24.30;21.80;;;;;;2228166;62;20403;-59
2022/03/28 07:45:31;0.00;0.00;0.62;0.00;0.00;0.62;7.43;5.97;;;24.30;21.80;;;;;;2227798;62;20376;-55
2022/03/28 07:48:16;0.00;0.00;0.62;0.00;0.00;0.62;6.40;5.40;;;24.30;21.80;;;;;;2228510;62;20387;-56
2022/03/28 07:51:01;0.00;0.00;0.62;0.00;0.00;0.62;6.40;4.87;;;24.30;21.80;;;;;;2228149;62;20364;-55
2022/03/28 07:53:46;0.00;0.00;0.62;0.00;0.00;0.62;6.50;4.93;;;24.30;21.80;;;;;;2224053;62;20953;-53
2022/03/28 07:56:31;0.00;0.00;0.62;0.00;0.00;0.62;5.70;4.83;;;24.30;21.80;;;;;;2228129;62;20539;-56
2022/03/28 07:59:17;0.00;0.00;0.62;0.00;0.00;0.62;6.03;4.60;;;24.30;21.80;;;;;;2227706;62;20444;-57
2022/03/28 08:02:02;0.00;0.00;0.62;0.00;0.00;0.62;5.33;4.80;;;24.30;21.80;;;;;;2227833;62;20916;-58
2022/03/28 08:04:47;0.00;0.00;0.62;0.00;0.00;0.62;6.40;4.87;;;24.30;21.80;;;;;;2228658;62;20420;-54
2022/03/28 08:07:32;0.00;0.00;0.62;0.00;0.00;0.62;4.77;3.93;;;24.30;21.80;;;;;;2227347;62;20375;-57
2022/03/28 08:10:17;0.00;0.00;0.62;0.00;0.00;0.62;6.70;4.93;;;24.30;21.80;;;;;;2228525;62;20460;-54
2022/03/28 08:13:02;0.00;0.00;0.62;0.00;0.00;0.62;3.87;3.40;;;24.30;21.80;;;;;;2227968;62;20484;-59
2022/03/28 08:15:48;0.00;0.00;0.62;0.00;0.00;0.62;4.73;3.43;;;24.30;21.80;;;;;;2227649;62;20424;-57
2022/03/28 08:18:36;0.00;0.00;0.62;0.00;0.00;0.62;4.80;4.30;;;24.30;21.80;;;;;;2228328;62;20797;-58
2022/03/28 08:21:20;0.00;0.00;0.62;0.00;0.00;0.62;5.50;3.60;;;24.30;21.80;;;;;;2227590;62;20376;-56
2022/03/28 08:24:05;0.00;0.00;0.62;0.00;0.00;0.62;4.23;3.83;;;24.30;21.80;;;;;;2228106;62;20425;-55
2022/03/28 08:26:50;0.00;0.00;0.62;0.00;0.00;0.62;4.10;2.87;;;24.30;21.80;;;;;;2228154;62;20375;-57
2022/03/28 08:29:34;0.00;0.00;0.62;0.00;0.00;0.62;3.57;2.97;;;24.30;22.30;;;;;;2227250;62;20396;-58
2022/03/28 08:32:21;0.00;0.00;0.62;0.00;0.00;0.62;3.67;3.00;;;24.30;21.80;;;;;;2228412;62;20404;-56
2022/03/28 08:35:07;0.00;0.00;0.62;0.00;0.00;0.62;3.53;2.73;;;24.30;21.80;;;;;;2227718;62;20790;-54
2022/03/28 08:37:51;0.00;0.00;0.62;0.00;0.00;0.62;4.20;2.83;;;24.30;22.30;;;;;;2227575;62;20457;-52
2022/03/28 08:40:36;0.00;0.00;0.62;0.00;0.00;0.62;3.97;2.80;;;24.30;21.80;;;;;;2228274;62;20508;-55
2022/03/28 08:43:23;0.00;0.00;0.62;0.00;0.00;0.62;3.90;2.40;;;24.30;21.80;;;;;;2227490;62;20368;-55
2022/03/28 08:46:09;0.00;0.00;0.62;0.00;0.00;0.62;3.87;3.10;;;24.30;21.80;;;;;;2227856;62;20452;-56
2022/03/28 08:48:57;0.00;0.00;0.62;0.00;0.00;0.62;2.80;2.30;;;24.30;21.80;;;;;;2228200;62;20441;-54
2022/03/28 08:51:41;0.00;0.00;0.62;0.00;0.00;0.62;3.90;2.70;;;24.30;21.80;;;;;;2227585;62;20416;-55
2022/03/28 08:54:26;0.00;0.00;0.62;0.00;0.00;0.62;3.57;2.57;;;24.30;21.80;;;;;;2225303;62;20368;-57
2022/03/28 08:57:12;0.00;0.00;0.62;0.00;0.00;0.62;4.43;2.60;;;24.40;21.80;;;;;;2224879;62;20505;-58
2022/03/28 08:59:58;0.00;0.00;0.62;0.00;0.00;0.62;4.50;2.30;;;24.30;21.80;;;;;;2476125;54;20413;-58
2022/03/28 09:02:45;0.00;0.00;0.62;0.00;0.00;0.62;3.80;2.60;;;24.40;21.80;;;;;;2224300;62;20369;-54
2022/03/28 09:05:33;0.00;0.00;0.62;0.00;0.00;0.62;2.53;2.13;;;24.40;22.20;;;;;;2223686;62;20369;-59
2022/03/28 09:08:23;0.00;0.00;0.62;0.00;0.00;0.62;2.77;2.17;;;24.40;21.80;;;;;;2452187;54;20405;-59
2022/03/28 09:11:20;0.00;0.00;0.62;0.00;0.00;0.62;3.70;2.63;;;24.40;21.80;;;;;;2224399;62;20467;-59
2022/03/28 09:14:05;0.00;0.00;0.62;0.00;0.00;0.62;3.43;2.57;;;24.40;21.80;;;;;;2223634;62;20479;-55
2022/03/28 09:16:59;0.00;0.00;0.62;0.00;0.00;0.62;3.80;2.90;;;24.40;21.80;;;;;;2223897;62;20910;-53
2022/03/28 09:19:47;0.00;0.00;0.62;0.00;0.00;0.62;3.40;2.50;;;24.40;21.80;;;;;;2223855;62;20417;-54
2022/03/28 09:22:37;0.00;0.00;0.62;0.00;0.00;0.62;3.93;2.90;;;24.40;21.80;;;;;;2223673;62;20450;-53
2022/03/28 09:25:21;0.00;0.00;0.62;0.00;0.00;0.62;3.80;2.70;;;24.40;21.80;;;;;;2224321;62;20381;-52
2022/03/28 09:28:06;0.00;0.00;0.62;0.00;0.00;0.62;3.50;2.90;;;24.40;21.80;;;;;;2223265;62;20953;-54
2022/03/28 09:30:51;0.00;0.00;0.62;0.00;0.00;0.62;3.87;3.20;;;24.40;21.80;;;;;;2223846;62;20514;-59
2022/03/28 09:33:50;0.00;0.00;0.62;0.00;0.00;0.62;3.40;2.70;;;24.50;21.90;;;;;;2224165;62;20450;-57
2022/03/28 09:36:46;0.00;0.00;0.62;0.00;0.00;0.62;3.07;2.50;;;24.50;21.90;;;;;;2220537;62;20782;-60
2022/03/28 09:39:32;0.00;0.00;0.62;0.00;0.00;0.62;3.90;2.67;;;24.50;21.90;;;;;;2223858;62;20393;-61
2022/03/28 09:42:17;0.00;0.00;0.62;0.00;0.00;0.62;3.43;2.73;;;24.50;21.90;;;;;;2223652;62;20373;-53
2022/03/28 09:45:03;0.00;0.00;0.62;0.00;0.00;0.62;3.53;2.60;;;24.50;21.90;;;;;;2223944;62;20376;-59
2022/03/28 09:47:59;0.00;0.00;0.62;0.00;0.00;0.62;3.50;2.57;;;24.50;21.90;;;;;;2224155;62;20893;-56
2022/03/28 09:50:48;0.00;0.00;0.62;0.00;0.00;0.62;4.00;2.30;;;24.50;21.90;;;;;;2223796;62;20384;-51
2022/03/28 09:53:36;0.00;0.00;0.62;0.00;0.00;0.62;3.17;2.77;;;24.60;22.00;;;;;;2224022;62;20392;-54
2022/03/28 09:56:22;0.00;0.00;0.62;0.00;0.00;0.62;2.90;2.37;;;24.60;22.00;;;;;;2223675;62;20446;-60
2022/03/28 09:59:07;0.00;0.00;0.62;0.00;0.00;0.62;2.70;2.03;;;24.60;22.00;;;;;;2226807;62;20398;-58
2022/03/28 10:01:52;0.00;0.00;0.62;0.00;0.00;0.62;3.20;2.10;;;24.60;22.00;;;;;;2232103;62;20366;-59
2022/03/28 10:04:37;0.00;0.00;0.62;0.00;0.00;0.62;2.80;2.30;;;24.60;22.00;;;;;;2231093;62;20419;-58
2022/03/28 10:07:22;0.00;0.00;0.62;0.00;0.00;0.62;2.33;1.80;;;24.60;22.00;;;;;;2228288;62;20383;-60
2022/03/28 10:10:07;0.00;0.00;0.62;0.00;0.00;0.62;3.00;2.23;;;24.60;22.50;;;;;;2232088;62;20922;-56
2022/03/28 10:12:54;0.00;0.00;0.62;0.00;0.00;0.62;2.37;1.80;;;24.70;22.00;;;;;;2231284;62;20430;-59
2022/03/28 10:15:39;0.00;0.00;0.62;0.00;0.00;0.62;2.77;1.73;;;24.70;22.00;;;;;;2231733;62;20797;-64
2022/03/28 10:18:27;0.00;0.00;0.62;0.00;0.00;0.62;2.30;1.70;;;24.70;22.00;;;;;;2231388;62;20443;-59
2022/03/28 10:21:18;0.00;0.00;0.62;0.00;0.00;0.62;2.87;2.10;;;24.70;22.10;;;;;;2230926;62;20431;-66
2022/03/28 10:24:07;0.00;0.00;0.62;0.00;0.00;0.62;3.47;2.30;;;24.80;22.10;;;;;;2232220;62;20363;-57
2022/03/28 10:26:56;0.00;0.00;0.62;0.00;0.00;0.62;2.37;1.97;;;24.80;22.10;;;;;;2546066;46;20365;-61
2022/03/28 10:29:44;0.00;0.00;0.62;0.00;0.00;0.62;2.80;2.00;;;24.80;22.10;;;;;;2223432;62;20438;-62
2022/03/28 10:32:28;0.00;0.00;0.62;0.00;0.00;0.62;3.03;2.20;;;24.80;22.10;;;;;;2224304;62;20401;-59
2022/03/28 10:35:16;0.00;0.00;0.62;0.00;0.00;0.62;2.57;2.20;;;24.90;22.20;;;;;;2223333;62;20422;-52
2022/03/28 10:38:14;0.00;0.00;0.62;0.00;0.00;0.62;2.63;2.10;;;24.90;22.20;;;;;;2223640;62;20373;-55
2022/03/28 10:41:01;0.00;0.00;0.62;0.00;0.00;0.62;2.27;2.00;;;24.90;22.20;;;;;;2223517;62;20392;-57
2022/03/28 10:43:48;0.00;0.00;0.62;0.00;0.00;0.62;2.60;2.20;;;24.90;22.20;;;;;;2223121;62;20389;-55
2022/03/28 10:46:37;0.00;0.00;0.62;0.00;0.00;0.62;1.90;1.50;;;25.00;22.30;;;;;;2224287;62;20422;-56
2022/03/28 10:49:24;0.00;0.00;0.62;0.00;0.00;0.62;1.90;1.60;;;25.00;22.80;;;;;;2223294;62;20389;-57
2022/03/28 10:52:15;0.00;0.00;0.62;0.00;0.00;0.62;2.70;1.90;;;25.00;22.30;;;;;;2223604;62;20434;-56
2022/03/28 10:55:07;0.00;0.00;0.62;0.00;0.00;0.62;2.23;1.83;;;25.00;22.30;;;;;;2224064;62;20895;-58
2022/03/28 10:57:51;0.00;0.00;0.62;0.00;0.00;0.62;2.77;2.00;;;25.10;22.30;;;;;;2222552;62;21191;-53